createdAt,value
2023-01-19T00:02:14.504Z,80.80
2023-01-19T00:04:41.261Z,80.80
2023-01-19T00:07:09.046Z,80.80
2023-01-19T00:09:36.391Z,80.80
2023-01-19T00:12:03.073Z,80.80
2023-01-19T00:14:35.258Z,80.80
2023-01-19T00:17:01.968Z,80.80
2023-01-19T00:19:29.340Z,80.80
2023-01-19T00:21:56.065Z,80.80
2023-01-19T00:24:23.076Z,80.80
2023-01-19T00:26:49.748Z,80.80
2023-01-19T00:29:16.466Z,80.90
2023-01-19T00:31:43.250Z,80.90
2023-01-19T00:34:09.952Z,80.90
2023-01-19T00:36:36.667Z,81.00
2023-01-19T00:39:03.449Z,81.00
2023-01-19T00:41:30.216Z,81.00
2023-01-19T00:43:56.910Z,80.90
2023-01-19T00:46:23.593Z,81.00
2023-01-19T00:48:50.333Z,81.00
2023-01-19T00:51:17.025Z,81.10
2023-01-19T00:53:43.798Z,81.10
2023-01-19T00:56:10.486Z,81.10
2023-01-19T00:58:37.189Z,81.10
2023-01-19T01:01:04.231Z,81.20
2023-01-19T01:03:31.013Z,81.20
2023-01-19T01:05:57.731Z,81.20
2023-01-19T01:08:24.654Z,81.30
2023-01-19T01:10:51.658Z,81.20
2023-01-19T01:13:21.432Z,81.30
2023-01-19T01:15:52.747Z,81.30
2023-01-19T01:18:19.548Z,81.30
2023-01-19T01:20:46.258Z,81.30
2023-01-19T01:23:13.214Z,81.30
2023-01-19T01:25:40.001Z,81.30
2023-01-19T01:28:07.171Z,81.30
2023-01-19T01:30:34.118Z,81.30
2023-01-19T01:33:01.376Z,81.40
2023-01-19T01:35:28.367Z,81.40
2023-01-19T01:37:58.398Z,81.40
2023-01-19T01:40:25.181Z,81.40
2023-01-19T01:42:51.958Z,81.40
2023-01-19T01:45:35.458Z,81.40
2023-01-19T01:48:10.086Z,81.60
2023-01-19T01:50:43.787Z,81.50
2023-01-19T01:53:13.888Z,81.60
2023-01-19T01:55:45.998Z,81.50
2023-01-19T01:58:12.690Z,81.60
2023-01-19T02:00:39.475Z,81.50
2023-01-19T02:03:06.238Z,81.50
2023-01-19T02:05:34.134Z,81.50
2023-01-19T02:08:24.808Z,81.50
2023-01-19T02:10:51.577Z,81.60
2023-01-19T02:13:19.050Z,81.60
2023-01-19T02:15:46.750Z,81.60
2023-01-19T02:18:13.429Z,81.60
2023-01-19T02:20:40.594Z,81.60
2023-01-19T02:23:11.513Z,81.70
2023-01-19T02:25:38.240Z,81.60
2023-01-19T02:28:05.208Z,81.70
2023-01-19T02:30:32.000Z,81.70
2023-01-19T02:32:58.952Z,81.80
2023-01-19T02:35:25.906Z,81.80
2023-01-19T02:37:52.574Z,81.80
2023-01-19T02:40:19.327Z,81.80
2023-01-19T02:42:49.853Z,81.80
2023-01-19T02:45:20.051Z,81.90
2023-01-19T02:47:48.498Z,81.90
2023-01-19T02:50:43.758Z,81.90
2023-01-19T02:53:12.898Z,82.70
2023-01-19T02:55:39.545Z,81.90
2023-01-19T02:58:16.018Z,81.90
2023-01-19T03:00:42.745Z,82.00
2023-01-19T03:03:12.631Z,82.00
2023-01-19T03:06:03.579Z,82.00
2023-01-19T03:08:31.663Z,82.10
2023-01-19T03:11:12.075Z,82.00
2023-01-19T03:13:49.880Z,82.00
2023-01-19T03:16:34.444Z,82.00
2023-01-19T03:19:14.990Z,82.00
2023-01-19T03:21:42.948Z,82.00
2023-01-19T03:24:09.646Z,82.00
2023-01-19T03:26:42.991Z,82.00
2023-01-19T03:29:10.238Z,82.00
2023-01-19T03:31:36.935Z,82.00
2023-01-19T03:34:05.339Z,82.00
2023-01-19T03:36:34.873Z,82.10
2023-01-19T03:39:01.782Z,82.10
2023-01-19T03:41:28.502Z,82.20
2023-01-19T03:43:55.475Z,82.10
2023-01-19T03:46:22.796Z,82.10
2023-01-19T03:48:49.550Z,82.00
2023-01-19T03:51:16.226Z,82.00
2023-01-19T03:53:42.927Z,81.90
2023-01-19T03:56:27.753Z,81.90
2023-01-19T03:58:56.223Z,82.00
2023-01-19T04:01:23.738Z,82.00
2023-01-19T04:03:51.032Z,82.00
2023-01-19T04:06:17.825Z,82.10
2023-01-19T04:08:44.624Z,82.10
2023-01-19T04:11:11.344Z,82.10
2023-01-19T04:13:38.095Z,82.20
2023-01-19T04:16:05.415Z,82.20
2023-01-19T04:18:33.900Z,82.20
2023-01-19T04:21:02.663Z,82.20
2023-01-19T04:23:29.404Z,82.20
2023-01-19T04:26:03.469Z,82.20
2023-01-19T04:28:30.289Z,82.30
2023-01-19T04:30:57.028Z,82.30
2023-01-19T04:33:23.791Z,82.30
2023-01-19T04:35:53.536Z,82.30
2023-01-19T04:38:21.143Z,82.40
2023-01-19T04:40:48.884Z,82.30
2023-01-19T04:43:15.625Z,82.30
2023-01-19T04:45:42.452Z,82.20
2023-01-19T04:48:09.142Z,82.30
2023-01-19T04:50:35.830Z,82.30
2023-01-19T04:53:02.797Z,82.30
2023-01-19T04:55:29.722Z,82.40
2023-01-19T04:57:56.541Z,82.30
2023-01-19T05:00:23.335Z,82.30
2023-01-19T05:02:50.066Z,82.30
2023-01-19T05:05:16.853Z,82.40
2023-01-19T05:07:43.611Z,82.30
2023-01-19T05:10:10.943Z,82.30
2023-01-19T05:12:37.649Z,82.40
2023-01-19T05:15:04.715Z,82.50
2023-01-19T05:17:31.424Z,82.60
2023-01-19T05:19:58.148Z,82.70
2023-01-19T05:22:24.902Z,82.70
2023-01-19T05:24:51.581Z,82.70
2023-01-19T05:27:18.297Z,82.70
2023-01-19T05:29:45.127Z,82.70
2023-01-19T05:32:11.819Z,82.60
2023-01-19T05:34:38.507Z,82.70
2023-01-19T05:37:05.253Z,82.70
2023-01-19T05:39:32.005Z,82.70
2023-01-19T05:41:58.707Z,82.70
2023-01-19T05:44:25.439Z,82.70
2023-01-19T05:46:52.250Z,82.70
2023-01-19T05:49:18.986Z,82.70
2023-01-19T05:51:45.750Z,82.70
2023-01-19T05:54:14.137Z,82.70
2023-01-19T05:56:40.901Z,82.80
2023-01-19T05:59:07.619Z,82.70
2023-01-19T06:01:34.385Z,82.80
2023-01-19T06:04:01.267Z,82.70
2023-01-19T06:06:28.008Z,82.70
2023-01-19T06:08:54.897Z,82.70
2023-01-19T06:11:21.607Z,82.70
2023-01-19T06:13:48.390Z,82.80
2023-01-19T06:16:15.157Z,82.70
2023-01-19T06:18:41.828Z,82.70
2023-01-19T06:21:12.142Z,82.60
2023-01-19T06:23:38.852Z,82.70
2023-01-19T06:26:05.774Z,82.60
2023-01-19T06:28:32.470Z,82.70
2023-01-19T06:30:59.238Z,82.70
2023-01-19T06:33:26.457Z,82.70
2023-01-19T06:35:53.240Z,82.80
2023-01-19T06:38:19.979Z,82.80
2023-01-19T06:40:51.618Z,82.80
2023-01-19T06:43:18.346Z,82.80
2023-01-19T06:45:46.134Z,82.80
2023-01-19T06:48:13.011Z,82.90
2023-01-19T06:50:40.010Z,82.80
2023-01-19T06:53:06.690Z,82.90
2023-01-19T06:55:33.419Z,82.80
2023-01-19T06:58:00.853Z,82.80
2023-01-19T07:00:27.627Z,82.80
2023-01-19T07:02:54.454Z,82.80
2023-01-19T07:05:21.163Z,82.80
2023-01-19T07:07:54.705Z,82.90
2023-01-19T07:10:21.854Z,82.90
2023-01-19T07:12:48.903Z,82.80
2023-01-19T07:15:16.737Z,82.90
2023-01-19T07:17:43.675Z,82.80
2023-01-19T07:20:11.407Z,82.80
2023-01-19T07:22:38.083Z,82.80
2023-01-19T07:25:05.557Z,82.80
2023-01-19T07:27:32.238Z,82.80
2023-01-19T07:29:59.017Z,82.80
2023-01-19T07:32:25.705Z,82.80
2023-01-19T07:34:52.413Z,82.80
2023-01-19T07:37:19.115Z,82.80
2023-01-19T07:39:45.818Z,82.80
2023-01-19T07:42:12.564Z,82.70
2023-01-19T07:44:39.272Z,82.80
2023-01-19T07:47:05.999Z,82.80
2023-01-19T07:49:32.821Z,82.80
2023-01-19T07:51:59.496Z,82.70
2023-01-19T07:54:26.474Z,83.50
2023-01-19T07:56:55.933Z,82.70
2023-01-19T07:59:22.748Z,82.90
2023-01-19T08:01:49.534Z,82.80
2023-01-19T08:04:16.297Z,82.90
2023-01-19T08:06:43.536Z,82.90
2023-01-19T08:09:10.342Z,83.00
2023-01-19T08:11:37.018Z,83.00
2023-01-19T08:14:05.736Z,83.00
2023-01-19T08:16:34.462Z,83.00
2023-01-19T08:19:01.170Z,83.00
2023-01-19T08:21:28.037Z,83.00
2023-01-19T08:23:55.442Z,83.00
2023-01-19T08:26:28.958Z,83.00
2023-01-19T08:28:57.151Z,83.00
2023-01-19T08:31:25.002Z,83.00
2023-01-19T08:33:52.088Z,83.00
2023-01-19T08:36:19.353Z,82.90
2023-01-19T08:38:46.441Z,83.00
2023-01-19T08:41:13.284Z,83.00
2023-01-19T08:43:40.067Z,83.00
2023-01-19T08:46:06.871Z,82.90
2023-01-19T08:48:33.583Z,82.80
2023-01-19T08:51:00.360Z,82.90
2023-01-19T08:53:27.146Z,82.90
2023-01-19T08:55:57.041Z,82.80
2023-01-19T08:58:24.009Z,82.80
2023-01-19T09:00:50.806Z,82.80
2023-01-19T09:03:17.565Z,82.70
2023-01-19T09:05:44.391Z,82.80
2023-01-19T09:08:12.297Z,82.70
2023-01-19T09:10:39.575Z,82.70
2023-01-19T09:13:07.429Z,82.70
2023-01-19T09:15:34.287Z,82.70
2023-01-19T09:18:01.726Z,82.70
2023-01-19T09:20:28.904Z,82.70
2023-01-19T09:22:56.474Z,82.70
2023-01-19T09:25:23.163Z,82.80
2023-01-19T09:27:49.926Z,82.80
2023-01-19T09:30:17.005Z,82.90
2023-01-19T09:32:43.734Z,83.00
2023-01-19T09:35:10.534Z,83.00
2023-01-19T09:37:37.325Z,83.00
2023-01-19T09:40:06.068Z,82.90
2023-01-19T09:42:41.923Z,83.80
2023-01-19T09:45:15.341Z,82.90
2023-01-19T09:47:42.066Z,82.90
2023-01-19T09:50:29.103Z,83.00
2023-01-19T09:53:10.407Z,83.30
2023-01-19T09:55:37.094Z,83.40
2023-01-19T09:58:04.767Z,83.30
2023-01-19T10:00:31.469Z,83.10
2023-01-19T10:03:02.857Z,83.00
2023-01-19T10:05:51.896Z,82.80
2023-01-19T10:08:38.683Z,82.50
2023-01-19T10:11:05.389Z,82.40
2023-01-19T10:13:32.140Z,82.30
2023-01-19T10:16:14.342Z,82.30
2023-01-19T10:18:47.376Z,82.30
2023-01-19T10:21:23.680Z,82.30
2023-01-19T10:24:07.258Z,82.20
2023-01-19T10:26:34.570Z,82.30
2023-01-19T10:29:08.667Z,82.20
2023-01-19T10:31:36.368Z,82.20
2023-01-19T10:34:03.439Z,82.10
2023-01-19T10:36:37.642Z,82.00
2023-01-19T10:39:07.762Z,81.90
2023-01-19T10:41:54.772Z,81.80
2023-01-19T10:44:29.007Z,81.70
2023-01-19T10:46:56.779Z,81.70
2023-01-19T10:49:30.540Z,81.60
2023-01-19T10:52:00.078Z,81.50
2023-01-19T10:54:27.493Z,81.40
2023-01-19T10:56:58.678Z,81.30
2023-01-19T10:59:46.875Z,81.30
2023-01-19T11:02:19.861Z,81.30
2023-01-19T11:04:51.126Z,81.10
2023-01-19T11:07:20.998Z,81.10
2023-01-19T11:09:48.215Z,80.90
2023-01-19T11:12:22.169Z,80.90
2023-01-19T11:14:49.817Z,80.70
2023-01-19T11:17:21.799Z,80.70
2023-01-19T11:20:02.265Z,80.60
2023-01-19T11:22:32.117Z,80.50
2023-01-19T11:25:03.593Z,80.50
2023-01-19T11:27:31.154Z,80.40
2023-01-19T11:30:03.167Z,80.20
2023-01-19T11:32:29.995Z,80.10
2023-01-19T11:34:56.745Z,80.20
2023-01-19T11:37:28.756Z,81.40
2023-01-19T11:39:57.439Z,79.00
2023-01-19T11:42:27.174Z,75.40
2023-01-19T11:45:13.300Z,71.90
2023-01-19T11:47:40.355Z,68.60
2023-01-19T11:50:23.155Z,67.30
2023-01-19T11:53:06.138Z,65.70
2023-01-19T11:55:33.105Z,64.70
2023-01-19T11:58:00.050Z,64.20
2023-01-19T12:00:39.902Z,64.20
2023-01-19T12:03:14.342Z,64.10
2023-01-19T12:05:42.286Z,65.20
2023-01-19T12:08:13.526Z,66.00
2023-01-19T12:10:41.316Z,66.90
2023-01-19T12:13:37.146Z,68.30
2023-01-19T12:16:33.532Z,69.50
2023-01-19T12:19:21.306Z,70.60
2023-01-19T12:21:48.026Z,71.70
2023-01-19T12:24:53.040Z,72.10
2023-01-19T12:27:42.731Z,71.60
2023-01-19T12:30:29.929Z,71.40
2023-01-19T12:33:21.662Z,71.30
2023-01-19T12:35:57.446Z,71.40
2023-01-19T12:38:30.039Z,71.80
2023-01-19T12:41:21.402Z,72.00
2023-01-19T12:43:48.959Z,71.60
2023-01-19T12:46:33.913Z,71.90
2023-01-19T12:49:21.359Z,72.00
2023-01-19T12:51:48.585Z,72.60
2023-01-19T12:54:29.005Z,72.90
2023-01-19T12:57:01.004Z,73.20
2023-01-19T12:59:28.027Z,73.50
2023-01-19T13:02:32.422Z,73.80
2023-01-19T13:05:16.883Z,73.90
2023-01-19T13:08:01.975Z,74.10
2023-01-19T13:10:53.712Z,74.10
2023-01-19T13:13:24.719Z,74.10
2023-01-19T13:15:54.189Z,74.10
2023-01-19T13:18:26.339Z,74.30
2023-01-19T13:21:04.501Z,74.30
2023-01-19T13:23:49.345Z,74.20
2023-01-19T13:26:17.486Z,74.20
2023-01-19T13:28:45.497Z,74.10
2023-01-19T13:31:12.760Z,73.80
2023-01-19T13:33:53.591Z,73.50
2023-01-19T13:36:28.953Z,73.40
2023-01-19T13:38:56.488Z,73.30
2023-01-19T13:41:28.963Z,73.50
2023-01-19T13:44:20.257Z,73.70
2023-01-19T13:46:47.403Z,73.80
2023-01-19T13:49:16.038Z,73.90
2023-01-19T13:51:42.776Z,74.00
2023-01-19T13:54:17.825Z,74.90
2023-01-19T13:56:47.988Z,74.30
2023-01-19T13:59:14.747Z,74.20
2023-01-19T14:01:43.623Z,74.30
2023-01-19T14:04:30.405Z,74.30
2023-01-19T14:06:59.464Z,74.20
2023-01-19T14:09:26.262Z,74.10
2023-01-19T14:12:06.511Z,73.90
2023-01-19T14:14:33.361Z,73.70
2023-01-19T14:17:00.259Z,73.70
2023-01-19T14:19:27.073Z,73.80
2023-01-19T14:22:01.680Z,73.90
2023-01-19T14:24:28.745Z,74.00
2023-01-19T14:27:07.742Z,73.90
2023-01-19T14:29:35.225Z,74.10
2023-01-19T14:32:15.253Z,74.20
2023-01-19T14:34:50.771Z,74.20
2023-01-19T14:37:17.450Z,74.20
2023-01-19T14:39:45.768Z,74.10
2023-01-19T14:42:17.513Z,74.20
2023-01-19T14:44:46.979Z,74.20
2023-01-19T14:47:25.428Z,74.20
2023-01-19T14:49:52.092Z,74.20
2023-01-19T14:52:30.032Z,74.20
2023-01-19T14:54:56.741Z,74.10
2023-01-19T14:57:23.479Z,74.10
2023-01-19T14:59:50.249Z,74.10
2023-01-19T15:02:17.725Z,74.20
2023-01-19T15:04:44.796Z,74.20
2023-01-19T15:07:18.526Z,74.30
2023-01-19T15:09:46.258Z,74.20
2023-01-19T15:12:16.015Z,74.10
2023-01-19T15:14:44.129Z,74.10
2023-01-19T15:17:17.538Z,74.00
2023-01-19T15:19:44.226Z,74.10
2023-01-19T15:22:12.134Z,74.10
2023-01-19T15:24:38.820Z,74.10
2023-01-19T15:27:05.578Z,74.20
2023-01-19T15:29:32.444Z,74.30
2023-01-19T15:31:59.175Z,74.30
2023-01-19T15:34:25.896Z,74.30
2023-01-19T15:36:52.595Z,74.30
2023-01-19T15:39:19.283Z,74.40
2023-01-19T15:41:46.013Z,74.30
2023-01-19T15:44:12.687Z,74.40
2023-01-19T15:46:39.559Z,74.40
2023-01-19T15:49:06.390Z,74.40
2023-01-19T15:51:33.097Z,74.40
2023-01-19T15:53:59.883Z,74.40
2023-01-19T15:56:28.158Z,74.40
2023-01-19T15:58:55.085Z,74.40
2023-01-19T16:01:26.255Z,74.60
2023-01-19T16:03:53.053Z,74.60
2023-01-19T16:06:19.792Z,74.60
2023-01-19T16:08:46.550Z,74.70
2023-01-19T16:11:14.524Z,74.70
2023-01-19T16:13:43.965Z,74.70
2023-01-19T16:16:28.949Z,74.80
2023-01-19T16:18:56.565Z,74.80
2023-01-19T16:21:23.365Z,74.80
2023-01-19T16:23:50.125Z,74.80
2023-01-19T16:26:27.128Z,74.80
2023-01-19T16:28:57.050Z,74.90
2023-01-19T16:31:23.895Z,75.00
2023-01-19T16:33:50.612Z,75.00
2023-01-19T16:36:24.783Z,75.10
2023-01-19T16:38:51.576Z,75.10
2023-01-19T16:41:18.275Z,75.10
2023-01-19T16:43:49.483Z,75.20
2023-01-19T16:46:27.365Z,75.20
2023-01-19T16:48:54.178Z,75.20
2023-01-19T16:51:20.847Z,76.00
2023-01-19T16:53:49.100Z,75.20
2023-01-19T16:56:15.851Z,75.30
2023-01-19T16:58:42.754Z,75.30
2023-01-19T17:01:11.244Z,75.30
2023-01-19T17:03:38.127Z,75.40
2023-01-19T17:06:05.917Z,75.50
2023-01-19T17:08:33.202Z,75.50
2023-01-19T17:11:00.099Z,76.40
2023-01-19T17:13:27.947Z,75.60
2023-01-19T17:15:59.664Z,75.70
2023-01-19T17:18:26.828Z,75.70
2023-01-19T17:20:53.516Z,75.80
2023-01-19T17:23:22.260Z,75.80
2023-01-19T17:25:53.154Z,75.80
2023-01-19T17:28:19.922Z,75.90
2023-01-19T17:30:46.729Z,76.00
2023-01-19T17:33:13.535Z,76.00
2023-01-19T17:35:40.259Z,76.10
2023-01-19T17:38:07.067Z,76.20
2023-01-19T17:40:33.791Z,77.10
2023-01-19T17:43:00.551Z,76.30
2023-01-19T17:45:27.254Z,76.20
2023-01-19T17:47:54.019Z,76.30
2023-01-19T17:50:20.687Z,76.40
2023-01-19T17:52:47.418Z,76.40
2023-01-19T17:55:14.164Z,76.40
2023-01-19T17:57:40.842Z,76.60
2023-01-19T18:00:08.201Z,76.60
2023-01-19T18:02:34.994Z,76.60
2023-01-19T18:05:01.703Z,76.60
2023-01-19T18:07:28.982Z,76.50
2023-01-19T18:09:55.668Z,76.60
2023-01-19T18:12:23.326Z,76.60
2023-01-19T18:14:50.047Z,76.70
2023-01-19T18:17:17.706Z,76.70
2023-01-19T18:19:44.399Z,76.80
2023-01-19T18:22:11.136Z,76.70
2023-01-19T18:24:37.829Z,76.80
2023-01-19T18:27:04.638Z,76.90
2023-01-19T18:29:31.347Z,76.90
2023-01-19T18:31:58.133Z,76.90
2023-01-19T18:34:24.886Z,76.90
2023-01-19T18:36:51.595Z,77.00
2023-01-19T18:39:18.392Z,77.00
2023-01-19T18:41:45.087Z,77.00
2023-01-19T18:44:12.159Z,77.10
2023-01-19T18:46:39.984Z,77.20
2023-01-19T18:49:06.853Z,77.20
2023-01-19T18:51:33.535Z,77.20
2023-01-19T18:54:00.215Z,77.20
2023-01-19T18:56:26.884Z,77.30
2023-01-19T18:58:53.615Z,77.40
2023-01-19T19:01:25.669Z,77.40
2023-01-19T19:03:53.020Z,77.40
2023-01-19T19:06:19.991Z,77.40
2023-01-19T19:08:48.359Z,77.50
2023-01-19T19:11:15.088Z,77.40
2023-01-19T19:13:41.882Z,77.40
2023-01-19T19:16:09.709Z,77.40
2023-01-19T19:18:36.721Z,77.50
2023-01-19T19:21:07.841Z,77.50
2023-01-19T19:23:34.591Z,77.50
2023-01-19T19:26:05.384Z,77.50
2023-01-19T19:28:32.581Z,77.60
2023-01-19T19:31:10.343Z,77.60
2023-01-19T19:33:37.326Z,77.70
2023-01-19T19:36:04.635Z,77.70
2023-01-19T19:38:31.351Z,77.80
2023-01-19T19:40:58.072Z,77.80
2023-01-19T19:43:25.071Z,77.80
2023-01-19T19:45:59.364Z,77.90
2023-01-19T19:48:26.481Z,78.00
2023-01-19T19:50:53.270Z,77.90
2023-01-19T19:53:20.477Z,78.00
2023-01-19T19:56:00.439Z,78.00
2023-01-19T19:58:27.370Z,78.20
2023-01-19T20:00:54.377Z,78.00
2023-01-19T20:03:21.196Z,78.00
2023-01-19T20:05:48.236Z,78.10
2023-01-19T20:08:15.060Z,78.10
2023-01-19T20:10:41.786Z,78.10
2023-01-19T20:13:09.255Z,78.20
2023-01-19T20:15:37.174Z,78.20
2023-01-19T20:18:05.476Z,78.30
2023-01-19T20:20:33.259Z,78.30
2023-01-19T20:23:00.676Z,78.30
2023-01-19T20:25:27.890Z,78.30
2023-01-19T20:27:54.782Z,78.40
2023-01-19T20:30:22.155Z,78.40
2023-01-19T20:32:48.998Z,78.40
2023-01-19T20:35:15.848Z,78.40
2023-01-19T20:37:42.696Z,78.50
2023-01-19T20:40:09.857Z,78.40
2023-01-19T20:42:36.574Z,78.50
2023-01-19T20:45:03.474Z,78.50
2023-01-19T20:47:30.240Z,78.50
2023-01-19T20:49:56.935Z,78.50
2023-01-19T20:52:23.634Z,78.60
2023-01-19T20:54:50.433Z,78.60
2023-01-19T20:57:17.129Z,78.60
2023-01-19T20:59:43.890Z,78.60
2023-01-19T21:02:11.262Z,78.60
2023-01-19T21:04:38.258Z,78.60
2023-01-19T21:07:04.960Z,78.60
2023-01-19T21:09:31.683Z,78.70
2023-01-19T21:11:58.375Z,78.70
2023-01-19T21:14:25.040Z,78.80
2023-01-19T21:16:51.795Z,78.80
2023-01-19T21:19:18.480Z,78.80
2023-01-19T21:21:45.246Z,78.80
2023-01-19T21:24:12.001Z,78.90
2023-01-19T21:26:38.746Z,78.90
2023-01-19T21:29:05.446Z,79.00
2023-01-19T21:31:32.202Z,79.00
2023-01-19T21:33:59.249Z,79.00
2023-01-19T21:36:26.098Z,79.00
2023-01-19T21:38:52.875Z,79.00
2023-01-19T21:41:19.776Z,79.10
2023-01-19T21:43:46.603Z,79.10
2023-01-19T21:46:14.843Z,79.10
2023-01-19T21:48:41.953Z,79.10
2023-01-19T21:51:08.832Z,79.10
2023-01-19T21:53:35.567Z,79.10
2023-01-19T21:56:02.301Z,79.00
2023-01-19T21:58:29.000Z,79.10
2023-01-19T22:01:03.095Z,79.10
2023-01-19T22:03:30.038Z,79.10
2023-01-19T22:05:56.930Z,79.10
2023-01-19T22:08:23.797Z,79.10
2023-01-19T22:10:50.510Z,79.10
2023-01-19T22:13:18.064Z,79.20
2023-01-19T22:15:44.765Z,79.20
2023-01-19T22:18:11.457Z,79.10
2023-01-19T22:20:38.338Z,79.20
2023-01-19T22:23:05.057Z,79.30
2023-01-19T22:25:33.169Z,79.30
2023-01-19T22:28:01.750Z,79.30
2023-01-19T22:30:28.718Z,79.30
2023-01-19T22:32:55.452Z,79.30
2023-01-19T22:35:22.218Z,79.30
2023-01-19T22:37:48.891Z,79.30
2023-01-19T22:40:15.783Z,79.50
2023-01-19T22:42:46.823Z,79.50
2023-01-19T22:45:13.955Z,79.40
2023-01-19T22:47:41.154Z,79.40
2023-01-19T22:50:08.678Z,79.50
2023-01-19T22:52:35.370Z,79.50
2023-01-19T22:55:02.170Z,79.60
2023-01-19T22:57:31.400Z,79.50
2023-01-19T23:00:14.190Z,79.50
2023-01-19T23:02:40.886Z,79.50
2023-01-19T23:05:07.845Z,79.50
2023-01-19T23:07:34.534Z,79.50
2023-01-19T23:10:01.271Z,79.50
2023-01-19T23:12:27.938Z,79.40
2023-01-19T23:14:54.615Z,79.40
2023-01-19T23:17:21.351Z,79.30
2023-01-19T23:19:48.038Z,79.30
2023-01-19T23:22:14.742Z,79.30
2023-01-19T23:24:41.423Z,79.30
2023-01-19T23:27:08.153Z,79.30
2023-01-19T23:29:34.943Z,79.30
2023-01-19T23:32:01.663Z,79.20
2023-01-19T23:34:28.366Z,79.20
2023-01-19T23:36:55.120Z,79.20
2023-01-19T23:39:22.397Z,79.20
2023-01-19T23:41:49.239Z,79.20
2023-01-19T23:44:15.944Z,79.20
2023-01-19T23:46:42.675Z,79.30
2023-01-19T23:49:09.598Z,79.30
2023-01-19T23:51:36.432Z,79.40
2023-01-19T23:54:03.600Z,79.40
2023-01-19T23:56:32.291Z,79.40
2023-01-19T23:59:04.060Z,79.30
